createdAt,value
2018-07-31T00:00:55.681Z,60.80
2018-07-31T00:03:24.225Z,58.90
2018-07-31T00:05:52.688Z,58.30
2018-07-31T00:08:21.204Z,57.40
2018-07-31T00:10:49.663Z,58.10
2018-07-31T00:13:18.184Z,57.60
2018-07-31T00:15:47.224Z,56.80
2018-07-31T00:18:15.686Z,56.80
2018-07-31T00:20:44.142Z,56.70
2018-07-31T00:23:12.576Z,56.30
2018-07-31T00:25:41.129Z,56.30
2018-07-31T00:28:09.587Z,56.40
2018-07-31T00:33:06.202Z,56.50
2018-07-31T00:35:34.646Z,56.60
2018-07-31T00:38:03.152Z,57.70
2018-07-31T00:40:31.600Z,58.20
2018-07-31T00:43:00.127Z,58.90
2018-07-31T00:45:28.550Z,59.00
2018-07-31T00:47:57.055Z,59.50
2018-07-31T00:50:25.523Z,60.30
2018-07-31T00:52:53.977Z,61.20
2018-07-31T00:55:22.489Z,62.00
2018-07-31T00:57:50.926Z,62.30
2018-07-31T01:00:19.396Z,62.80
2018-07-31T01:02:47.858Z,63.20
2018-07-31T01:05:16.351Z,63.40
2018-07-31T01:07:45.524Z,63.40
2018-07-31T01:10:14.096Z,63.70
2018-07-31T01:12:42.532Z,64.30
2018-07-31T01:15:11.104Z,65.40
2018-07-31T01:17:39.536Z,65.70
2018-07-31T01:20:08.056Z,65.60
2018-07-31T01:22:36.635Z,65.50
2018-07-31T01:25:05.912Z,65.00
2018-07-31T01:27:34.352Z,65.70
2018-07-31T01:30:03.253Z,65.80
2018-07-31T01:32:31.716Z,66.30
2018-07-31T01:35:00.265Z,65.50
2018-07-31T01:37:28.765Z,65.10
2018-07-31T01:39:57.204Z,66.00
2018-07-31T01:42:25.632Z,65.10
2018-07-31T01:44:54.101Z,65.10
2018-07-31T01:47:22.591Z,65.50
2018-07-31T01:49:51.100Z,65.50
2018-07-31T01:52:19.577Z,65.20
2018-07-31T01:54:48.071Z,65.60
2018-07-31T01:57:16.516Z,65.60
2018-07-31T01:59:45.031Z,65.90
2018-07-31T02:02:13.569Z,65.00
2018-07-31T02:04:41.995Z,64.80
2018-07-31T02:07:10.477Z,65.30
2018-07-31T02:09:39.643Z,66.30
2018-07-31T02:12:08.096Z,65.80
2018-07-31T02:14:36.644Z,65.60
2018-07-31T02:17:05.099Z,65.40
2018-07-31T02:19:33.535Z,65.50
2018-07-31T02:22:01.965Z,65.40
2018-07-31T02:24:30.448Z,65.30
2018-07-31T02:26:58.984Z,65.90
2018-07-31T02:29:32.755Z,66.70
2018-07-31T02:32:01.274Z,66.70
2018-07-31T02:34:29.775Z,66.40
2018-07-31T02:36:58.229Z,66.80
2018-07-31T02:39:26.716Z,66.40
2018-07-31T02:41:55.237Z,66.20
2018-07-31T02:44:23.653Z,66.90
2018-07-31T02:46:52.123Z,67.70
2018-07-31T02:49:20.697Z,68.20
2018-07-31T02:51:49.135Z,68.30
2018-07-31T02:54:17.665Z,68.40
2018-07-31T02:56:46.153Z,68.20
2018-07-31T02:59:14.796Z,68.70
2018-07-31T03:01:43.264Z,70.00
2018-07-31T03:04:11.820Z,70.00
2018-07-31T03:06:40.320Z,70.30
2018-07-31T03:09:10.038Z,70.20
2018-07-31T03:11:38.532Z,70.00
2018-07-31T03:14:07.277Z,70.10
2018-07-31T03:16:36.495Z,70.00
2018-07-31T03:19:05.259Z,69.80
2018-07-31T03:21:33.728Z,69.50
2018-07-31T03:24:02.197Z,69.20
2018-07-31T03:26:30.694Z,69.70
2018-07-31T03:28:59.172Z,68.80
2018-07-31T03:31:27.638Z,69.30
2018-07-31T03:33:56.249Z,69.40
2018-07-31T03:36:24.698Z,69.40
2018-07-31T03:38:53.191Z,69.40
2018-07-31T03:41:21.813Z,69.70
2018-07-31T03:43:50.317Z,70.40
2018-07-31T03:46:18.830Z,69.80
2018-07-31T03:48:47.276Z,70.60
2018-07-31T03:51:16.213Z,71.70
2018-07-31T03:53:44.740Z,72.10
2018-07-31T03:56:13.346Z,72.20
2018-07-31T03:58:41.890Z,72.80
2018-07-31T04:01:10.413Z,73.60
2018-07-31T04:03:38.863Z,74.30
2018-07-31T04:06:07.367Z,73.40
2018-07-31T04:08:35.848Z,74.00
2018-07-31T04:11:04.339Z,73.70
2018-07-31T04:13:32.763Z,74.30
2018-07-31T04:16:01.283Z,74.70
2018-07-31T04:18:29.742Z,75.00
2018-07-31T04:20:58.757Z,75.60
2018-07-31T04:23:27.211Z,75.50
2018-07-31T04:25:55.969Z,75.30
2018-07-31T04:28:24.391Z,75.70
2018-07-31T04:30:53.000Z,76.00
2018-07-31T04:33:21.472Z,75.60
2018-07-31T04:35:49.996Z,74.50
2018-07-31T04:38:18.447Z,73.70
2018-07-31T04:40:46.904Z,72.90
2018-07-31T04:43:15.396Z,72.10
2018-07-31T04:45:44.076Z,72.10
2018-07-31T04:48:12.547Z,72.30
2018-07-31T04:50:41.715Z,72.00
2018-07-31T04:53:10.225Z,72.30
2018-07-31T04:55:38.724Z,71.50
2018-07-31T04:58:07.223Z,70.50
2018-07-31T05:00:36.511Z,70.90
2018-07-31T05:03:05.015Z,69.40
2018-07-31T05:05:33.595Z,68.60
2018-07-31T05:08:02.176Z,67.80
2018-07-31T05:10:30.690Z,68.60
2018-07-31T05:12:59.200Z,68.10
2018-07-31T05:15:27.714Z,68.70
2018-07-31T05:17:56.205Z,68.70
2018-07-31T05:20:24.797Z,65.60
2018-07-31T05:22:53.279Z,60.60
2018-07-31T05:25:22.282Z,55.00
2018-07-31T05:27:50.744Z,50.00
2018-07-31T05:30:19.267Z,46.50
2018-07-31T05:32:47.838Z,43.40
2018-07-31T05:35:17.032Z,40.20
2018-07-31T05:37:46.352Z,38.80
2018-07-31T05:40:14.808Z,37.20
2018-07-31T05:42:44.093Z,35.50
2018-07-31T05:45:12.707Z,34.70
2018-07-31T05:47:41.219Z,36.10
2018-07-31T05:50:10.114Z,36.60
2018-07-31T05:52:39.081Z,36.00
2018-07-31T05:55:07.707Z,34.50
2018-07-31T05:57:36.493Z,32.80
2018-07-31T06:00:06.536Z,31.30
2018-07-31T06:02:35.025Z,30.30
2018-07-31T06:05:03.541Z,29.80
2018-07-31T06:07:32.027Z,28.40
2018-07-31T06:10:00.487Z,27.10
2018-07-31T06:12:28.969Z,27.60
2018-07-31T06:14:57.756Z,27.80
2018-07-31T06:17:26.251Z,28.30
2018-07-31T06:19:54.869Z,27.60
2018-07-31T06:22:23.376Z,28.00
2018-07-31T06:24:51.845Z,27.40
2018-07-31T06:27:20.365Z,27.30
2018-07-31T06:29:48.855Z,27.00
2018-07-31T06:32:17.399Z,26.60
2018-07-31T06:34:45.865Z,26.60
2018-07-31T06:37:14.407Z,26.40
2018-07-31T06:39:43.060Z,26.10
2018-07-31T06:42:11.825Z,26.00
2018-07-31T06:44:40.636Z,26.20
2018-07-31T06:47:09.121Z,26.20
2018-07-31T06:49:37.592Z,25.30
2018-07-31T06:52:06.089Z,24.70
2018-07-31T06:54:34.573Z,25.00
2018-07-31T06:57:03.042Z,25.40
2018-07-31T06:59:31.506Z,24.70
2018-07-31T07:02:00.041Z,23.80
2018-07-31T07:04:28.469Z,23.60
2018-07-31T07:06:56.969Z,22.80
2018-07-31T07:09:25.416Z,22.10
2018-07-31T07:11:53.976Z,22.00
2018-07-31T07:14:22.505Z,22.90
2018-07-31T07:16:51.024Z,23.10
2018-07-31T07:19:19.462Z,22.90
2018-07-31T07:24:16.218Z,20.70
2018-07-31T07:26:44.729Z,19.60
2018-07-31T07:29:13.775Z,20.00
2018-07-31T07:31:42.297Z,19.40
2018-07-31T07:34:10.779Z,19.40
2018-07-31T07:36:39.327Z,19.80
2018-07-31T07:39:10.668Z,19.00
2018-07-31T07:41:39.174Z,19.40
2018-07-31T07:44:08.097Z,20.00
2018-07-31T07:46:36.554Z,20.00
2018-07-31T07:49:05.069Z,19.70
2018-07-31T07:51:33.607Z,19.70
2018-07-31T07:54:02.247Z,20.20
2018-07-31T07:56:30.816Z,20.00
2018-07-31T07:58:59.348Z,19.70
2018-07-31T08:01:27.841Z,19.80
2018-07-31T08:03:57.079Z,19.10
2018-07-31T08:06:25.548Z,19.30
2018-07-31T08:08:54.047Z,19.30
2018-07-31T08:11:22.611Z,19.40
2018-07-31T08:13:51.127Z,19.00
2018-07-31T08:16:19.592Z,19.60
2018-07-31T08:18:48.076Z,18.30
2018-07-31T08:21:16.597Z,18.50
2018-07-31T08:23:45.104Z,19.00
2018-07-31T08:26:13.547Z,18.80
2018-07-31T08:28:41.993Z,19.00
2018-07-31T08:31:10.442Z,18.80
2018-07-31T08:33:39.710Z,19.00
2018-07-31T08:36:08.099Z,19.20
2018-07-31T08:38:37.328Z,18.90
2018-07-31T08:41:05.922Z,19.00
2018-07-31T08:43:34.509Z,19.40
2018-07-31T08:46:03.012Z,19.30
2018-07-31T08:51:00.361Z,18.10
2018-07-31T08:53:28.894Z,17.70
2018-07-31T08:55:57.352Z,17.00
2018-07-31T08:58:25.793Z,16.70
2018-07-31T09:00:54.267Z,16.70
2018-07-31T09:03:22.739Z,15.50
2018-07-31T09:05:51.241Z,15.80
2018-07-31T09:08:19.730Z,15.50
2018-07-31T09:10:48.183Z,16.00
2018-07-31T09:13:16.663Z,15.60
2018-07-31T09:15:45.217Z,15.70
2018-07-31T09:18:13.730Z,15.60
2018-07-31T09:20:42.193Z,15.10
2018-07-31T09:23:10.748Z,15.90
2018-07-31T09:25:45.214Z,15.20
2018-07-31T09:28:14.818Z,15.70
2018-07-31T09:30:48.627Z,15.30
2018-07-31T09:33:17.087Z,16.70
2018-07-31T09:35:45.990Z,15.60
2018-07-31T09:38:14.538Z,15.20
2018-07-31T09:40:43.032Z,15.50
2018-07-31T09:43:11.578Z,14.90
2018-07-31T09:45:40.032Z,15.00
2018-07-31T09:48:08.496Z,15.50
2018-07-31T09:50:37.070Z,15.00
2018-07-31T09:53:05.660Z,15.50
2018-07-31T09:55:34.259Z,14.50
2018-07-31T09:58:02.734Z,14.70
2018-07-31T10:00:36.564Z,14.50
2018-07-31T10:03:05.121Z,14.10
2018-07-31T10:05:33.699Z,13.90
2018-07-31T10:08:02.207Z,14.40
2018-07-31T10:10:30.767Z,13.60
2018-07-31T10:12:59.830Z,14.10
2018-07-31T10:15:28.367Z,14.50
2018-07-31T10:17:56.905Z,14.70
2018-07-31T10:20:25.363Z,13.80
2018-07-31T10:22:53.805Z,13.30
2018-07-31T10:25:22.295Z,13.10
2018-07-31T10:27:50.797Z,13.10
2018-07-31T10:30:19.276Z,13.50
2018-07-31T10:32:47.799Z,11.70
2018-07-31T10:35:17.104Z,12.30
2018-07-31T10:37:45.645Z,13.30
2018-07-31T10:40:14.141Z,12.40
2018-07-31T10:42:42.652Z,11.60
2018-07-31T10:45:11.176Z,11.60
2018-07-31T10:47:39.601Z,11.50
2018-07-31T10:50:08.801Z,11.40
2018-07-31T10:52:37.288Z,11.00
2018-07-31T10:55:05.769Z,10.30
2018-07-31T10:57:34.411Z,10.40
2018-07-31T11:00:02.957Z,10.30
2018-07-31T11:02:31.388Z,11.10
2018-07-31T11:04:59.955Z,10.40
2018-07-31T11:07:28.581Z,11.10
2018-07-31T11:09:57.132Z,10.00
2018-07-31T11:12:25.566Z,9.80
2018-07-31T11:14:54.025Z,10.10
2018-07-31T11:17:22.524Z,9.90
2018-07-31T11:22:45.471Z,9.40
2018-07-31T11:25:14.008Z,9.30
2018-07-31T11:27:42.628Z,9.90
2018-07-31T11:30:11.160Z,8.80
2018-07-31T11:32:39.657Z,9.20
2018-07-31T11:35:08.200Z,7.50
2018-07-31T11:37:36.664Z,8.40
2018-07-31T11:40:05.160Z,7.80
2018-07-31T11:42:33.660Z,7.80
2018-07-31T11:45:02.295Z,7.30
2018-07-31T11:47:30.914Z,7.40
2018-07-31T11:49:59.441Z,6.80
2018-07-31T11:52:27.836Z,6.70
2018-07-31T11:54:56.357Z,7.20
2018-07-31T11:57:24.871Z,7.30
2018-07-31T11:59:53.363Z,6.70
2018-07-31T12:02:21.896Z,6.60
2018-07-31T12:04:50.477Z,7.50
2018-07-31T12:07:18.896Z,7.80
2018-07-31T12:09:47.409Z,7.50
2018-07-31T12:12:15.866Z,7.70
2018-07-31T12:14:45.009Z,8.10
2018-07-31T12:17:13.530Z,8.10
2018-07-31T12:19:42.013Z,8.10
2018-07-31T12:22:10.402Z,8.10
2018-07-31T12:24:38.872Z,8.60
2018-07-31T12:27:07.341Z,7.80
2018-07-31T12:29:35.920Z,8.40
2018-07-31T12:34:32.617Z,8.10
2018-07-31T12:37:01.675Z,8.40
2018-07-31T12:39:30.137Z,8.90
2018-07-31T12:41:58.816Z,6.90
2018-07-31T12:44:27.261Z,7.10
2018-07-31T12:49:24.616Z,6.80
2018-07-31T12:51:53.141Z,7.70
2018-07-31T12:54:21.631Z,7.70
2018-07-31T12:56:50.143Z,7.50
2018-07-31T12:59:18.656Z,7.80
2018-07-31T13:01:47.156Z,7.30
2018-07-31T13:04:15.616Z,8.20
2018-07-31T13:06:44.175Z,7.20
2018-07-31T13:09:12.733Z,7.10
2018-07-31T13:11:41.215Z,7.60
2018-07-31T13:14:09.800Z,7.20
2018-07-31T13:16:38.337Z,7.10
2018-07-31T13:19:06.895Z,6.80
2018-07-31T13:21:35.919Z,7.40
2018-07-31T13:24:04.439Z,7.40
2018-07-31T13:26:32.985Z,6.20
2018-07-31T13:29:01.447Z,6.50
2018-07-31T13:31:30.158Z,7.20
2018-07-31T13:33:58.623Z,6.70
2018-07-31T13:36:27.212Z,6.20
2018-07-31T13:38:55.644Z,7.40
2018-07-31T13:41:24.180Z,7.00
2018-07-31T13:43:52.689Z,6.20
2018-07-31T13:46:21.816Z,6.00
2018-07-31T13:48:51.088Z,6.00
2018-07-31T13:51:19.840Z,5.90
2018-07-31T13:53:48.521Z,7.10
2018-07-31T13:58:45.443Z,6.20
2018-07-31T14:01:14.299Z,6.30
2018-07-31T14:03:42.892Z,6.70
2018-07-31T14:06:11.606Z,7.20
2018-07-31T14:08:40.256Z,6.20
2018-07-31T14:11:09.509Z,6.70
2018-07-31T14:13:38.004Z,5.70
2018-07-31T14:16:06.744Z,5.70
2018-07-31T14:18:35.545Z,5.80
2018-07-31T14:21:04.121Z,5.70
2018-07-31T14:26:01.371Z,5.60
2018-07-31T14:28:29.847Z,5.60
2018-07-31T14:30:58.396Z,5.70
2018-07-31T14:33:26.867Z,5.90
2018-07-31T14:35:55.382Z,6.80
2018-07-31T14:38:23.899Z,6.20
2018-07-31T14:40:52.446Z,6.00
2018-07-31T14:43:21.175Z,6.60
2018-07-31T14:45:49.783Z,5.20
2018-07-31T14:48:18.362Z,5.50
2018-07-31T14:50:46.929Z,5.20
2018-07-31T14:53:15.569Z,5.80
2018-07-31T14:55:44.109Z,6.40
2018-07-31T14:58:12.591Z,6.70
2018-07-31T15:00:41.171Z,7.40
2018-07-31T15:03:10.221Z,5.70
2018-07-31T15:05:38.765Z,6.50
2018-07-31T15:08:07.317Z,8.00
2018-07-31T15:10:36.312Z,8.20
2018-07-31T15:13:04.850Z,7.30
2018-07-31T15:15:33.304Z,7.30
2018-07-31T15:18:01.832Z,7.20
2018-07-31T15:20:30.268Z,7.90
2018-07-31T15:22:58.752Z,7.60
2018-07-31T15:25:27.280Z,7.80
2018-07-31T15:27:55.895Z,9.10
2018-07-31T15:30:24.352Z,9.60
2018-07-31T15:32:52.833Z,9.10
2018-07-31T15:35:21.340Z,9.40
2018-07-31T15:37:56.124Z,10.00
2018-07-31T15:40:24.640Z,9.90
2018-07-31T15:42:53.170Z,10.80
2018-07-31T15:45:21.709Z,11.30
2018-07-31T15:47:50.316Z,11.70
2018-07-31T15:50:18.668Z,11.10
2018-07-31T15:52:47.139Z,11.40
2018-07-31T15:55:15.637Z,11.40
2018-07-31T15:57:44.124Z,11.70
2018-07-31T16:00:12.901Z,11.50
2018-07-31T16:02:41.388Z,11.80
2018-07-31T16:05:09.811Z,11.80
2018-07-31T16:07:38.360Z,11.90
2018-07-31T16:10:07.189Z,12.20
2018-07-31T16:12:35.859Z,12.30
2018-07-31T16:15:04.779Z,12.50
2018-07-31T16:17:33.356Z,13.20
2018-07-31T16:20:01.858Z,13.30
2018-07-31T16:22:30.408Z,12.70
2018-07-31T16:24:58.860Z,13.00
2018-07-31T16:27:27.367Z,13.80
2018-07-31T16:29:55.885Z,13.60
2018-07-31T16:32:25.113Z,13.90
2018-07-31T16:34:53.696Z,13.70
2018-07-31T16:37:22.266Z,14.00
2018-07-31T16:39:50.815Z,14.20
2018-07-31T16:42:19.482Z,14.20
2018-07-31T16:44:47.951Z,14.30
2018-07-31T16:47:16.489Z,15.10
2018-07-31T16:49:44.975Z,14.60
2018-07-31T16:52:13.481Z,14.40
2018-07-31T16:54:41.903Z,14.40
2018-07-31T16:57:10.406Z,14.50
2018-07-31T16:59:39.516Z,14.60
2018-07-31T17:02:08.055Z,15.10
2018-07-31T17:04:36.545Z,15.30
2018-07-31T17:09:33.208Z,15.70
2018-07-31T17:12:01.686Z,15.90
2018-07-31T17:14:30.160Z,15.70
2018-07-31T17:16:58.631Z,15.60
2018-07-31T17:19:27.107Z,15.90
2018-07-31T17:21:55.568Z,16.30
2018-07-31T17:24:24.044Z,16.70
2018-07-31T17:26:53.266Z,16.10
2018-07-31T17:29:22.343Z,16.90
2018-07-31T17:31:50.825Z,17.00
2018-07-31T17:34:19.320Z,16.80
2018-07-31T17:36:47.833Z,17.50
2018-07-31T17:39:16.291Z,17.40
2018-07-31T17:41:44.803Z,17.40
2018-07-31T17:44:13.411Z,17.80
2018-07-31T17:46:41.907Z,18.20
2018-07-31T17:49:10.404Z,18.50
2018-07-31T17:51:38.912Z,18.60
2018-07-31T17:54:07.484Z,19.00
2018-07-31T17:56:35.945Z,19.30
2018-07-31T17:59:04.405Z,19.10
2018-07-31T18:01:32.880Z,19.30
2018-07-31T18:04:01.382Z,19.50
2018-07-31T18:06:29.827Z,19.80
2018-07-31T18:08:58.281Z,20.30
2018-07-31T18:11:26.709Z,20.00
2018-07-31T18:13:55.225Z,21.50
2018-07-31T18:16:23.703Z,20.90
2018-07-31T18:18:52.344Z,21.50
2018-07-31T18:21:20.795Z,21.50
2018-07-31T18:23:49.326Z,21.90
2018-07-31T18:26:17.783Z,21.90
2018-07-31T18:28:46.253Z,22.30
2018-07-31T18:31:14.729Z,22.10
2018-07-31T18:33:43.199Z,22.50
2018-07-31T18:36:11.729Z,22.60
2018-07-31T18:38:40.200Z,22.70
2018-07-31T18:41:08.718Z,23.00
2018-07-31T18:43:37.217Z,23.10
2018-07-31T18:46:05.892Z,23.60
2018-07-31T18:51:02.571Z,24.30
2018-07-31T18:53:31.189Z,24.50
2018-07-31T18:55:59.553Z,24.50
2018-07-31T18:58:28.035Z,24.30
2018-07-31T19:00:56.518Z,25.20
2018-07-31T19:03:24.933Z,25.30
2018-07-31T19:05:53.515Z,25.70
2018-07-31T19:08:22.090Z,26.30
2018-07-31T19:10:50.664Z,27.10
2018-07-31T19:13:19.278Z,26.80
2018-07-31T19:15:47.754Z,27.60
2018-07-31T19:18:16.816Z,27.50
2018-07-31T19:20:45.320Z,27.20
2018-07-31T19:23:13.791Z,27.50
2018-07-31T19:25:42.375Z,28.30
2018-07-31T19:28:10.984Z,28.20
2018-07-31T19:30:39.391Z,28.70
2018-07-31T19:33:07.872Z,28.70
2018-07-31T19:35:36.371Z,29.50
2018-07-31T19:38:04.804Z,29.90
2018-07-31T19:40:33.258Z,30.20
2018-07-31T19:43:01.761Z,30.70
2018-07-31T19:45:30.291Z,31.30
2018-07-31T19:47:58.785Z,31.60
2018-07-31T19:50:27.463Z,32.20
2018-07-31T19:52:56.054Z,32.10
2018-07-31T19:55:25.540Z,32.70
2018-07-31T19:57:54.063Z,33.40
2018-07-31T20:00:22.875Z,34.50
2018-07-31T20:02:52.116Z,34.20
2018-07-31T20:05:20.580Z,34.80
2018-07-31T20:07:49.139Z,35.20
2018-07-31T20:10:17.737Z,36.20
2018-07-31T20:12:46.293Z,35.80
2018-07-31T20:15:14.917Z,35.90
2018-07-31T20:17:43.376Z,36.10
2018-07-31T20:20:11.957Z,36.30
2018-07-31T20:22:40.560Z,36.80
2018-07-31T20:25:09.057Z,36.50
2018-07-31T20:27:37.559Z,36.70
2018-07-31T20:30:06.698Z,36.90
2018-07-31T20:32:35.875Z,36.70
2018-07-31T20:35:04.516Z,37.90
2018-07-31T20:37:33.135Z,38.70
2018-07-31T20:40:02.156Z,38.90
2018-07-31T20:44:58.891Z,38.70
2018-07-31T20:47:27.469Z,38.70
2018-07-31T20:49:56.054Z,39.30
2018-07-31T20:52:24.647Z,39.10
2018-07-31T20:54:53.462Z,39.70
2018-07-31T20:57:22.127Z,41.00
2018-07-31T20:59:50.773Z,41.20
2018-07-31T21:02:19.267Z,41.60
2018-07-31T21:04:47.816Z,41.60
2018-07-31T21:07:16.319Z,41.40
2018-07-31T21:09:45.274Z,41.10
2018-07-31T21:12:13.767Z,43.30
2018-07-31T21:14:42.276Z,43.70
2018-07-31T21:17:11.903Z,43.60
2018-07-31T21:19:40.543Z,44.50
2018-07-31T21:22:09.088Z,44.60
2018-07-31T21:24:37.628Z,43.90
2018-07-31T21:27:06.131Z,44.30
2018-07-31T21:29:34.815Z,44.30
2018-07-31T21:32:03.416Z,44.90
2018-07-31T21:34:31.994Z,44.20
2018-07-31T21:37:00.514Z,44.90
2018-07-31T21:39:29.006Z,44.90
2018-07-31T21:41:57.576Z,45.80
2018-07-31T21:44:26.639Z,46.30
2018-07-31T21:46:55.160Z,46.40
2018-07-31T21:49:23.676Z,45.80
2018-07-31T21:51:52.207Z,46.00
2018-07-31T21:54:20.896Z,46.80
2018-07-31T21:56:49.379Z,46.80
2018-07-31T21:59:19.059Z,46.50
2018-07-31T22:01:47.581Z,45.10
2018-07-31T22:04:16.077Z,47.10
2018-07-31T22:06:44.630Z,45.70
2018-07-31T22:09:13.099Z,47.00
2018-07-31T22:11:41.603Z,47.20
2018-07-31T22:14:10.116Z,46.10
2018-07-31T22:16:38.713Z,47.60
2018-07-31T22:19:07.180Z,48.20
2018-07-31T22:21:35.647Z,45.00
2018-07-31T22:24:04.295Z,46.70
2018-07-31T22:26:32.880Z,47.60
2018-07-31T22:29:01.445Z,48.10
2018-07-31T22:31:30.003Z,48.30
2018-07-31T22:33:58.589Z,48.20
2018-07-31T22:36:27.152Z,47.40
2018-07-31T22:38:56.273Z,47.30
2018-07-31T22:41:24.878Z,48.00
2018-07-31T22:43:53.384Z,49.10
2018-07-31T22:46:21.847Z,49.10
2018-07-31T22:48:50.532Z,48.70
2018-07-31T22:51:19.025Z,49.80
2018-07-31T22:53:47.569Z,49.10
2018-07-31T22:56:16.896Z,49.90
2018-07-31T22:58:45.320Z,49.70
2018-07-31T23:01:13.764Z,49.60
2018-07-31T23:03:42.632Z,50.80
2018-07-31T23:06:11.318Z,50.90
2018-07-31T23:08:39.872Z,50.90
2018-07-31T23:11:08.393Z,51.80
2018-07-31T23:13:36.944Z,51.70
2018-07-31T23:18:33.680Z,52.60
2018-07-31T23:21:02.200Z,52.50
2018-07-31T23:25:58.897Z,53.00
2018-07-31T23:28:27.469Z,53.60
2018-07-31T23:33:24.208Z,54.30
2018-07-31T23:35:52.733Z,53.80
2018-07-31T23:38:21.281Z,54.40
2018-07-31T23:40:49.746Z,53.90
2018-07-31T23:43:18.256Z,54.90
2018-07-31T23:45:46.712Z,53.90
2018-07-31T23:48:15.258Z,54.40
2018-07-31T23:50:43.868Z,53.60
2018-07-31T23:53:12.986Z,55.60
2018-07-31T23:55:41.484Z,55.40
2018-07-31T23:58:09.903Z,55.70
